createdAt,value
2022-11-18T00:01:23.424Z,76.93
2022-11-18T00:03:53.056Z,76.70
2022-11-18T00:06:23.110Z,76.54
2022-11-18T00:08:51.316Z,76.74
2022-11-18T00:11:36.592Z,76.75
2022-11-18T00:14:20.623Z,76.98
2022-11-18T00:16:51.287Z,76.96
2022-11-18T00:19:20.374Z,76.95
2022-11-18T00:21:48.554Z,76.79
2022-11-18T00:24:16.644Z,77.06
2022-11-18T00:26:46.213Z,77.42
2022-11-18T00:29:14.769Z,77.76
2022-11-18T00:31:43.306Z,78.05
2022-11-18T00:34:13.987Z,78.88
2022-11-18T00:36:42.259Z,79.45
2022-11-18T00:39:11.827Z,79.63
2022-11-18T00:41:57.254Z,79.95
2022-11-18T00:44:26.759Z,80.20
2022-11-18T00:46:55.219Z,80.75
2022-11-18T00:49:23.557Z,80.62
2022-11-18T00:51:52.762Z,80.78
2022-11-18T00:54:20.937Z,81.23
2022-11-18T00:56:49.053Z,81.09
2022-11-18T00:59:17.531Z,80.44
2022-11-18T01:01:47.346Z,80.07
2022-11-18T01:04:15.612Z,79.78
2022-11-18T01:06:43.788Z,79.50
2022-11-18T01:09:13.023Z,79.23
2022-11-18T01:11:58.487Z,79.84
2022-11-18T01:14:27.494Z,79.98
2022-11-18T01:16:57.885Z,80.25
2022-11-18T01:19:26.702Z,80.10
2022-11-18T01:21:56.535Z,80.01
2022-11-18T01:24:24.605Z,80.06
2022-11-18T01:26:52.701Z,80.02
2022-11-18T01:29:20.919Z,79.81
2022-11-18T01:32:17.421Z,78.48
2022-11-18T01:34:38.633Z,77.19
2022-11-18T01:37:06.769Z,76.43
2022-11-18T01:39:35.042Z,75.92
2022-11-18T01:42:03.174Z,75.52
2022-11-18T01:45:05.232Z,75.00
2022-11-18T01:47:37.099Z,74.06
2022-11-18T01:50:08.213Z,73.48
2022-11-18T01:52:37.158Z,73.09
2022-11-18T01:55:11.668Z,72.87
2022-11-18T01:57:40.637Z,71.58
2022-11-18T02:00:09.753Z,71.80
2022-11-18T02:02:39.149Z,71.14
2022-11-18T02:05:11.768Z,71.25
2022-11-18T02:07:43.015Z,71.09
2022-11-18T02:10:19.699Z,70.97
2022-11-18T02:12:48.083Z,70.35
2022-11-18T02:15:17.641Z,70.31
2022-11-18T02:17:55.763Z,69.57
2022-11-18T02:20:43.466Z,69.61
2022-11-18T02:23:52.810Z,69.57
2022-11-18T02:26:50.394Z,69.83
2022-11-18T02:29:22.615Z,70.58
2022-11-18T02:31:56.697Z,71.42
2022-11-18T02:34:38.181Z,71.94
2022-11-18T02:37:14.170Z,72.74
2022-11-18T02:39:50.044Z,73.84
2022-11-18T02:42:19.245Z,75.58
2022-11-18T02:44:54.041Z,75.83
2022-11-18T02:47:23.454Z,76.86
2022-11-18T02:49:56.773Z,76.62
2022-11-18T02:52:27.169Z,76.52
2022-11-18T02:54:56.940Z,76.98
2022-11-18T02:57:26.971Z,78.01
2022-11-18T02:59:56.479Z,78.86
2022-11-18T03:02:24.860Z,79.54
2022-11-18T03:04:56.208Z,80.91
2022-11-18T03:07:29.270Z,81.59
2022-11-18T03:09:59.806Z,81.12
2022-11-18T03:12:38.138Z,80.29
2022-11-18T03:15:20.052Z,80.05
2022-11-18T03:17:56.973Z,79.44
2022-11-18T03:20:29.952Z,78.84
2022-11-18T03:23:05.930Z,78.14
2022-11-18T03:25:39.118Z,78.11
2022-11-18T03:28:14.181Z,78.25
2022-11-18T03:30:48.915Z,78.34
2022-11-18T03:33:22.848Z,77.82
2022-11-18T03:35:53.842Z,77.71
2022-11-18T03:38:28.013Z,77.63
2022-11-18T03:40:59.829Z,77.45
2022-11-18T03:43:33.269Z,77.19
2022-11-18T03:46:08.396Z,77.64
2022-11-18T03:48:42.880Z,77.54
2022-11-18T03:51:15.989Z,77.64
2022-11-18T03:53:49.884Z,77.71
2022-11-18T03:56:23.892Z,77.51
2022-11-18T03:58:58.516Z,77.52
2022-11-18T04:01:34.895Z,77.46
2022-11-18T04:04:03.337Z,77.03
2022-11-18T04:06:38.758Z,76.77
2022-11-18T04:09:13.020Z,77.06
2022-11-18T04:12:04.625Z,76.86
2022-11-18T04:14:34.797Z,77.21
2022-11-18T04:17:09.010Z,77.52
2022-11-18T04:19:37.345Z,77.59
2022-11-18T04:22:05.642Z,79.05
2022-11-18T04:24:34.005Z,79.64
2022-11-18T04:27:02.702Z,80.38
2022-11-18T04:29:30.905Z,80.62
2022-11-18T04:31:59.103Z,80.68
2022-11-18T04:34:29.122Z,81.04
2022-11-18T04:36:57.287Z,81.72
2022-11-18T04:39:25.543Z,82.03
2022-11-18T04:41:59.464Z,82.70
2022-11-18T04:44:30.101Z,83.36
2022-11-18T04:47:01.025Z,83.17
2022-11-18T04:49:31.048Z,83.22
2022-11-18T04:51:59.497Z,82.50
2022-11-18T04:54:28.814Z,81.86
2022-11-18T04:56:57.361Z,81.54
2022-11-18T04:59:26.701Z,81.33
2022-11-18T05:01:56.025Z,81.38
2022-11-18T05:04:26.347Z,81.46
2022-11-18T05:06:55.866Z,81.73
2022-11-18T05:09:30.242Z,81.12
2022-11-18T05:12:17.098Z,81.24
2022-11-18T05:14:49.641Z,82.22
2022-11-18T05:17:19.442Z,82.56
2022-11-18T05:19:47.763Z,83.28
2022-11-18T05:22:17.297Z,83.83
2022-11-18T05:24:45.425Z,83.81
2022-11-18T05:27:13.985Z,84.39
2022-11-18T05:29:42.179Z,84.38
2022-11-18T05:32:10.565Z,85.22
2022-11-18T05:34:39.054Z,85.21
2022-11-18T05:37:07.140Z,85.03
2022-11-18T05:39:36.749Z,84.56
2022-11-18T05:42:22.368Z,83.90
2022-11-18T05:44:57.526Z,84.25
2022-11-18T05:47:26.723Z,84.96
2022-11-18T05:49:54.936Z,85.20
2022-11-18T05:52:23.027Z,85.28
2022-11-18T05:54:52.863Z,82.83
2022-11-18T05:57:20.945Z,81.39
2022-11-18T05:59:49.080Z,81.07
2022-11-18T06:02:20.988Z,81.99
2022-11-18T06:04:51.705Z,81.03
2022-11-18T06:07:23.105Z,80.60
2022-11-18T06:10:02.090Z,80.80
2022-11-18T06:12:37.300Z,79.69
2022-11-18T06:15:11.506Z,78.99
2022-11-18T06:17:43.156Z,77.86
2022-11-18T06:20:12.118Z,77.62
2022-11-18T06:22:46.145Z,77.30
2022-11-18T06:25:16.733Z,77.40
2022-11-18T06:27:45.511Z,78.31
2022-11-18T06:30:15.029Z,78.92
2022-11-18T06:32:43.336Z,80.29
2022-11-18T06:35:12.010Z,83.40
2022-11-18T06:37:40.093Z,84.40
2022-11-18T06:40:09.756Z,85.62
2022-11-18T06:42:56.725Z,87.34
2022-11-18T06:45:24.937Z,91.17
2022-11-18T06:47:52.033Z,90.70
2022-11-18T06:50:20.366Z,89.50
2022-11-18T06:52:48.469Z,90.30
2022-11-18T06:55:16.794Z,91.34
2022-11-18T06:57:47.257Z,89.95
2022-11-18T07:00:16.961Z,92.21
2022-11-18T07:02:45.077Z,92.56
2022-11-18T07:05:13.216Z,93.09
2022-11-18T07:07:42.456Z,93.05
2022-11-18T07:10:11.454Z,92.55
2022-11-18T07:12:39.605Z,90.94
2022-11-18T07:15:10.237Z,91.22
2022-11-18T07:17:38.289Z,91.48
2022-11-18T07:20:07.193Z,91.45
2022-11-18T07:22:35.280Z,91.16
2022-11-18T07:25:03.446Z,90.51
2022-11-18T07:27:31.515Z,90.45
2022-11-18T07:29:59.684Z,90.75
2022-11-18T07:32:29.145Z,92.24
2022-11-18T07:34:57.246Z,92.89
2022-11-18T07:37:25.394Z,94.55
2022-11-18T07:39:53.475Z,96.19
2022-11-18T07:42:21.535Z,97.15
2022-11-18T07:44:49.612Z,97.45
2022-11-18T07:47:17.731Z,98.37
2022-11-18T07:49:48.269Z,97.96
2022-11-18T07:52:16.477Z,97.69
2022-11-18T07:54:44.513Z,97.76
2022-11-18T07:57:12.557Z,95.23
2022-11-18T07:59:40.774Z,94.61
2022-11-18T08:02:12.245Z,93.71
2022-11-18T08:04:40.725Z,92.20
2022-11-18T08:07:12.064Z,90.85
2022-11-18T08:09:40.178Z,89.70
2022-11-18T08:12:08.565Z,89.33
2022-11-18T08:14:36.668Z,88.36
2022-11-18T08:17:04.796Z,86.73
2022-11-18T08:19:35.440Z,86.66
2022-11-18T08:22:03.530Z,85.29
2022-11-18T08:24:33.108Z,84.86
2022-11-18T08:27:01.229Z,83.47
2022-11-18T08:29:29.520Z,83.40
2022-11-18T08:31:57.973Z,81.66
2022-11-18T08:34:26.156Z,79.59
2022-11-18T08:36:54.269Z,78.30
2022-11-18T08:39:22.429Z,79.07
2022-11-18T08:41:51.934Z,82.17
2022-11-18T08:44:20.050Z,85.14
2022-11-18T08:46:48.237Z,86.53
2022-11-18T08:49:17.017Z,86.68
2022-11-18T08:51:45.433Z,82.21
2022-11-18T08:54:13.520Z,81.52
2022-11-18T08:56:41.960Z,82.25
2022-11-18T08:59:12.583Z,82.26
2022-11-18T09:01:42.079Z,81.30
2022-11-18T09:04:10.416Z,82.34
2022-11-18T09:06:40.400Z,81.06
2022-11-18T09:09:09.111Z,81.30
2022-11-18T09:11:39.744Z,80.59
2022-11-18T09:16:57.802Z,79.82
2022-11-18T09:22:14.317Z,78.51
2022-11-18T09:24:43.610Z,78.00
2022-11-18T09:27:16.709Z,78.36
2022-11-18T09:29:45.281Z,78.73
2022-11-18T09:32:14.978Z,78.10
2022-11-18T09:34:43.052Z,77.41
2022-11-18T09:37:11.323Z,76.40
2022-11-18T09:39:39.458Z,76.63
2022-11-18T09:42:22.280Z,76.37
2022-11-18T09:45:08.625Z,76.05
2022-11-18T09:47:41.417Z,76.05
2022-11-18T09:50:47.928Z,75.54
2022-11-18T09:53:12.281Z,75.41
2022-11-18T09:55:42.273Z,74.98
2022-11-18T09:58:18.354Z,75.59
2022-11-18T10:00:46.872Z,76.38
2022-11-18T10:03:23.842Z,77.02
2022-11-18T10:05:57.170Z,77.37
2022-11-18T10:08:29.849Z,76.88
2022-11-18T10:11:07.994Z,77.45
2022-11-18T10:13:53.221Z,79.38
2022-11-18T10:16:42.192Z,79.58
2022-11-18T10:19:25.701Z,80.33
2022-11-18T10:22:13.845Z,81.20
2022-11-18T10:24:50.538Z,81.33
2022-11-18T10:27:19.419Z,82.57
2022-11-18T10:29:54.327Z,83.09
2022-11-18T10:32:22.957Z,83.87
2022-11-18T10:34:54.077Z,83.77
2022-11-18T10:37:45.770Z,83.76
2022-11-18T10:40:26.032Z,83.95
2022-11-18T10:42:54.181Z,85.12
2022-11-18T10:45:27.601Z,85.78
2022-11-18T10:48:04.296Z,86.83
2022-11-18T10:50:38.530Z,86.81
2022-11-18T10:53:07.754Z,86.71
2022-11-18T10:55:35.995Z,86.54
2022-11-18T10:58:11.527Z,86.41
2022-11-18T11:00:43.480Z,86.23
2022-11-18T11:03:37.203Z,86.30
2022-11-18T11:06:38.032Z,86.32
2022-11-18T11:09:09.597Z,86.25
2022-11-18T11:11:40.525Z,86.53
2022-11-18T11:14:24.836Z,86.40
2022-11-18T11:17:00.117Z,85.98
2022-11-18T11:19:34.352Z,87.49
2022-11-18T11:22:03.862Z,87.33
2022-11-18T11:24:32.150Z,87.32
2022-11-18T11:30:18.000Z,88.30
2022-11-18T11:33:20.131Z,90.66
2022-11-18T11:35:57.449Z,90.31
2022-11-18T11:38:40.692Z,90.81
2022-11-18T11:41:21.060Z,91.48
2022-11-18T11:43:59.965Z,90.96
2022-11-18T11:46:39.253Z,91.31
2022-11-18T11:49:19.179Z,90.95
2022-11-18T11:51:53.458Z,91.24
2022-11-18T11:54:34.740Z,91.28
2022-11-18T11:57:06.458Z,91.27
2022-11-18T11:59:45.210Z,91.34
2022-11-18T12:02:33.744Z,92.36
2022-11-18T12:05:09.645Z,92.36
2022-11-18T12:07:43.679Z,92.69
2022-11-18T12:10:33.745Z,92.85
2022-11-18T12:13:18.499Z,93.66
2022-11-18T12:16:02.435Z,94.74
2022-11-18T12:18:38.722Z,95.23
2022-11-18T12:21:06.927Z,95.42
2022-11-18T12:23:35.620Z,95.99
2022-11-18T12:26:07.351Z,95.97
2022-11-18T12:28:41.432Z,97.77
2022-11-18T12:31:35.694Z,98.08
2022-11-18T12:34:20.286Z,98.20
2022-11-18T12:36:49.054Z,97.63
2022-11-18T12:39:49.063Z,97.57
2022-11-18T12:42:57.697Z,98.09
2022-11-18T12:46:01.935Z,98.43
2022-11-18T12:48:35.748Z,98.65
2022-11-18T12:51:12.356Z,98.91
2022-11-18T12:53:42.498Z,99.30
2022-11-18T12:56:23.804Z,99.64
2022-11-18T12:58:55.990Z,100.00
2022-11-18T13:01:26.848Z,100.00
2022-11-18T13:04:08.580Z,100.00
2022-11-18T13:06:39.195Z,100.00
2022-11-18T13:09:17.085Z,100.00
2022-11-18T13:11:51.689Z,100.00
2022-11-18T13:14:44.163Z,100.00
2022-11-18T13:17:49.504Z,100.00
2022-11-18T13:20:31.037Z,100.00
2022-11-18T13:23:19.661Z,100.00
2022-11-18T13:25:50.194Z,100.00
2022-11-18T13:28:30.341Z,100.00
2022-11-18T13:31:06.601Z,100.00
2022-11-18T13:33:37.505Z,100.00
2022-11-18T13:36:19.000Z,100.00
2022-11-18T13:38:57.470Z,100.00
2022-11-18T13:41:32.773Z,100.00
2022-11-18T13:44:18.671Z,100.00
2022-11-18T13:46:52.587Z,100.00
2022-11-18T13:49:25.409Z,100.00
2022-11-18T13:51:53.828Z,100.00
2022-11-18T13:54:25.976Z,100.00
2022-11-18T13:56:54.768Z,100.00
2022-11-18T13:59:25.457Z,100.00
2022-11-18T14:01:57.554Z,100.00
2022-11-18T14:04:28.506Z,100.00
2022-11-18T14:07:25.568Z,100.00
2022-11-18T14:09:56.189Z,100.00
2022-11-18T14:12:28.830Z,100.00
2022-11-18T14:15:20.670Z,100.00
2022-11-18T14:17:59.632Z,100.00
2022-11-18T14:20:29.377Z,100.00
2022-11-18T14:22:59.469Z,100.00
2022-11-18T14:25:31.210Z,100.00
2022-11-18T14:28:10.460Z,100.00
2022-11-18T14:30:39.904Z,100.00
2022-11-18T14:33:14.806Z,100.00
2022-11-18T14:35:44.811Z,100.00
2022-11-18T14:38:36.681Z,100.00
2022-11-18T14:41:04.907Z,100.00
2022-11-18T14:43:33.062Z,100.00
2022-11-18T14:46:03.531Z,100.00
2022-11-18T14:48:33.438Z,100.00
2022-11-18T14:51:02.020Z,100.00
2022-11-18T14:53:30.089Z,100.00
2022-11-18T14:56:00.673Z,100.00
2022-11-18T14:58:28.791Z,100.00
2022-11-18T15:00:57.035Z,100.00
2022-11-18T15:03:25.248Z,100.00
2022-11-18T15:05:54.726Z,100.00
2022-11-18T15:08:22.917Z,100.00
2022-11-18T15:10:51.086Z,100.00
2022-11-18T15:13:19.208Z,100.00
2022-11-18T15:15:47.548Z,100.00
2022-11-18T15:18:15.601Z,100.00
2022-11-18T15:20:43.774Z,100.00
2022-11-18T15:23:13.295Z,100.00
2022-11-18T15:25:41.375Z,100.00
2022-11-18T15:28:11.309Z,100.00
2022-11-18T15:30:39.564Z,100.00
2022-11-18T15:33:07.716Z,100.00
2022-11-18T15:35:38.665Z,100.00
2022-11-18T15:38:06.831Z,100.00
2022-11-18T15:40:36.916Z,100.00
2022-11-18T15:43:05.091Z,100.00
2022-11-18T15:45:33.150Z,100.00
2022-11-18T15:48:01.315Z,100.00
2022-11-18T15:50:29.557Z,100.00
2022-11-18T15:52:58.353Z,100.00
2022-11-18T15:55:26.422Z,100.00
2022-11-18T15:57:55.906Z,100.00
2022-11-18T16:00:24.185Z,100.00
2022-11-18T16:02:52.375Z,100.00
2022-11-18T16:05:20.416Z,100.00
2022-11-18T16:07:54.329Z,100.00
2022-11-18T16:10:42.800Z,100.00
2022-11-18T16:13:12.312Z,100.00
2022-11-18T16:15:49.430Z,100.00
2022-11-18T16:18:19.628Z,100.00
2022-11-18T16:20:47.840Z,100.00
2022-11-18T16:23:15.944Z,100.00
2022-11-18T16:25:47.949Z,100.00
2022-11-18T16:28:17.493Z,100.00
2022-11-18T16:31:06.966Z,100.00
2022-11-18T16:33:35.122Z,100.00
2022-11-18T16:36:03.386Z,100.00
2022-11-18T16:38:31.525Z,100.00
2022-11-18T16:41:00.500Z,100.00
2022-11-18T16:43:29.985Z,100.00
2022-11-18T16:45:58.089Z,100.00
2022-11-18T16:48:26.160Z,100.00
2022-11-18T16:51:19.311Z,100.00
2022-11-18T16:53:51.973Z,100.00
2022-11-18T16:56:20.457Z,100.00
2022-11-18T16:58:50.408Z,100.00
2022-11-18T17:01:23.319Z,100.00
2022-11-18T17:03:55.327Z,100.00
2022-11-18T17:06:24.695Z,100.00
2022-11-18T17:08:53.003Z,100.00
2022-11-18T17:11:21.288Z,100.00
2022-11-18T17:13:56.337Z,100.00
2022-11-18T17:16:26.147Z,100.00
2022-11-18T17:18:58.665Z,100.00
2022-11-18T17:21:28.215Z,100.00
2022-11-18T17:23:56.799Z,100.00
2022-11-18T17:26:26.762Z,100.00
2022-11-18T17:28:57.821Z,100.00
2022-11-18T17:31:26.738Z,100.00
2022-11-18T17:33:56.442Z,100.00
2022-11-18T17:36:26.403Z,100.00
2022-11-18T17:38:59.615Z,100.00
2022-11-18T17:41:46.792Z,100.00
2022-11-18T17:44:18.681Z,100.00
2022-11-18T17:46:48.106Z,100.00
2022-11-18T17:49:18.252Z,100.00
2022-11-18T17:51:47.176Z,100.00
2022-11-18T17:54:15.559Z,100.00
2022-11-18T17:56:44.056Z,100.00
2022-11-18T17:59:14.588Z,100.00
2022-11-18T18:01:44.526Z,100.00
2022-11-18T18:04:14.634Z,100.00
2022-11-18T18:06:42.830Z,100.00
2022-11-18T18:09:10.964Z,100.00
2022-11-18T18:11:39.195Z,100.00
2022-11-18T18:14:12.899Z,100.00
2022-11-18T18:16:45.426Z,100.00
2022-11-18T18:19:16.606Z,100.00
2022-11-18T18:21:45.512Z,100.00
2022-11-18T18:24:14.794Z,100.00
2022-11-18T18:26:42.998Z,100.00
2022-11-18T18:29:12.393Z,100.00
2022-11-18T18:31:40.474Z,100.00
2022-11-18T18:34:09.999Z,100.00
2022-11-18T18:36:38.120Z,100.00
2022-11-18T18:39:06.454Z,100.00
2022-11-18T18:41:34.866Z,100.00
2022-11-18T18:44:02.967Z,100.00
2022-11-18T18:46:34.202Z,100.00
2022-11-18T18:49:05.656Z,100.00
2022-11-18T18:51:38.089Z,100.00
2022-11-18T18:54:07.362Z,100.00
2022-11-18T18:56:35.510Z,100.00
2022-11-18T18:59:03.645Z,100.00
2022-11-18T19:01:31.910Z,100.00
2022-11-18T19:04:01.677Z,100.00
2022-11-18T19:09:21.906Z,100.00
2022-11-18T19:12:10.111Z,100.00
2022-11-18T19:14:38.329Z,100.00
2022-11-18T19:20:19.382Z,100.00
2022-11-18T19:22:47.516Z,100.00
2022-11-18T19:25:19.381Z,100.00
2022-11-18T19:27:47.482Z,100.00
2022-11-18T19:30:16.071Z,100.00
2022-11-18T19:32:44.209Z,100.00
2022-11-18T19:35:13.041Z,100.00
2022-11-18T19:37:41.123Z,100.00
2022-11-18T19:40:11.202Z,100.00
2022-11-18T19:42:42.356Z,100.00
2022-11-18T19:45:12.507Z,100.00
2022-11-18T19:47:40.781Z,100.00
2022-11-18T19:50:09.714Z,100.00
2022-11-18T19:52:37.982Z,100.00
2022-11-18T19:55:08.067Z,100.00
2022-11-18T19:57:36.227Z,100.00
2022-11-18T20:00:08.157Z,100.00
2022-11-18T20:02:36.200Z,100.00
2022-11-18T20:05:22.142Z,100.00
2022-11-18T20:07:50.193Z,100.00
2022-11-18T20:10:18.780Z,100.00
2022-11-18T20:12:46.893Z,100.00
2022-11-18T20:15:16.455Z,100.00
2022-11-18T20:17:44.565Z,100.00
2022-11-18T20:20:13.032Z,100.00
2022-11-18T20:22:41.280Z,100.00
2022-11-18T20:25:10.398Z,100.00
2022-11-18T20:27:38.442Z,100.00
2022-11-18T20:30:08.041Z,100.00
2022-11-18T20:32:37.518Z,100.00
2022-11-18T20:35:06.395Z,100.00
2022-11-18T20:37:34.550Z,100.00
2022-11-18T20:40:02.668Z,100.00
2022-11-18T20:42:48.688Z,99.54
2022-11-18T20:45:16.864Z,99.52
2022-11-18T20:47:46.279Z,99.08
2022-11-18T20:50:14.498Z,98.73
2022-11-18T20:52:42.522Z,99.01
2022-11-18T20:55:11.623Z,98.76
2022-11-18T20:57:39.657Z,98.39
2022-11-18T21:00:09.230Z,98.93
2022-11-18T21:02:37.323Z,99.58
2022-11-18T21:05:07.701Z,99.73
2022-11-18T21:07:36.032Z,99.38
2022-11-18T21:10:04.213Z,98.09
2022-11-18T21:12:32.326Z,98.03
2022-11-18T21:14:59.397Z,98.21
2022-11-18T21:17:27.456Z,98.49
2022-11-18T21:19:55.650Z,97.73
2022-11-18T21:22:24.322Z,97.62
2022-11-18T21:24:52.361Z,97.97
2022-11-18T21:27:20.488Z,97.56
2022-11-18T21:29:50.020Z,98.30
2022-11-18T21:32:18.070Z,98.04
2022-11-18T21:34:46.162Z,98.49
2022-11-18T21:37:14.305Z,99.21
2022-11-18T21:39:43.764Z,98.97
2022-11-18T21:42:11.873Z,99.53
2022-11-18T21:44:39.988Z,99.29
2022-11-18T21:47:08.153Z,99.27
2022-11-18T21:49:36.221Z,100.00
2022-11-18T21:52:04.375Z,100.00
2022-11-18T21:54:35.048Z,100.00
2022-11-18T21:57:04.578Z,100.00
2022-11-18T21:59:32.665Z,100.00
2022-11-18T22:02:00.805Z,100.00
2022-11-18T22:04:57.704Z,100.00
2022-11-18T22:07:27.280Z,100.00
2022-11-18T22:09:55.799Z,100.00
2022-11-18T22:12:25.355Z,100.00
2022-11-18T22:14:53.561Z,100.00
2022-11-18T22:17:21.635Z,100.00
2022-11-18T22:19:49.717Z,100.00
2022-11-18T22:22:18.493Z,100.00
2022-11-18T22:24:46.577Z,100.00
2022-11-18T22:27:14.670Z,100.00
2022-11-18T22:29:44.333Z,100.00
2022-11-18T22:32:12.484Z,100.00
2022-11-18T22:34:40.574Z,100.00
2022-11-18T22:37:08.647Z,100.00
2022-11-18T22:39:36.858Z,100.00
2022-11-18T22:42:22.640Z,100.00
2022-11-18T22:44:52.148Z,100.00
2022-11-18T22:47:21.309Z,100.00
2022-11-18T22:49:53.497Z,100.00
2022-11-18T22:52:24.293Z,100.00
2022-11-18T22:54:52.461Z,100.00
2022-11-18T22:57:21.639Z,100.00
2022-11-18T22:59:51.066Z,100.00
2022-11-18T23:02:19.309Z,100.00
2022-11-18T23:04:47.412Z,100.00
2022-11-18T23:07:15.587Z,100.00
2022-11-18T23:09:43.809Z,100.00
2022-11-18T23:12:29.531Z,100.00
2022-11-18T23:14:59.052Z,100.00
2022-11-18T23:17:27.213Z,100.00
2022-11-18T23:19:55.390Z,100.00
2022-11-18T23:22:23.548Z,100.00
2022-11-18T23:24:51.569Z,100.00
2022-11-18T23:27:19.714Z,100.00
2022-11-18T23:29:47.835Z,100.00
2022-11-18T23:32:17.354Z,100.00
2022-11-18T23:34:45.379Z,100.00
2022-11-18T23:37:13.450Z,100.00
2022-11-18T23:39:41.635Z,100.00
2022-11-18T23:42:09.753Z,100.00
2022-11-18T23:44:46.697Z,100.00
2022-11-18T23:47:15.151Z,100.00
2022-11-18T23:49:44.597Z,100.00
2022-11-18T23:52:12.833Z,100.00
2022-11-18T23:54:41.067Z,100.00
2022-11-18T23:57:09.287Z,100.00
2022-11-18T23:59:37.366Z,100.00
